Time;durP1;ratioP1;P1;durP2;ratioP2;P2;SDS_P1;SDS_P2;PMS_P1;PMS_P2;Temp;Humidity;BMP_temperature;BMP_pressure;BME280_temperature;BME280_humidity;BME280_pressure;Samples;Min_cycle;Max_cycle;Signal;HPM_P1;HPM_P2
2021/03/31 00:01:31;;;;;;;59.13;33.22;;;282.30;1945.60;;;;;;5017715;28;20480;-85
2021/03/31 00:03:57;;;;;;;57.03;30.63;;;282.30;1945.60;;;;;;5016710;28;20065;-85
2021/03/31 00:06:23;;;;;;;46.33;28.65;;;282.30;1920.00;;;;;;5017341;28;20053;-85
2021/03/31 00:08:49;;;;;;;53.42;30.17;;;282.20;1920.00;;;;;;5034791;28;20359;-84
2021/03/31 00:11:14;;;;;;;56.00;30.10;;;282.20;1920.00;;;;;;5016790;28;20040;-84
2021/03/31 00:13:40;;;;;;;53.83;31.15;;;282.10;1945.60;;;;;;5034629;28;20029;-84
2021/03/31 00:16:06;;;;;;;48.63;28.10;;;282.10;1945.60;;;;;;5016970;28;20492;-85
2021/03/31 00:18:32;;;;;;;50.67;29.58;;;282.10;1971.20;;;;;;5017167;28;20370;-84
2021/03/31 00:20:59;;;;;;;47.70;26.90;;;282.00;1971.20;;;;;;5016970;28;20021;-85
2021/03/31 00:23:27;;;;;;;47.28;26.83;;;282.10;1945.60;;;;;;5016781;28;20163;-84
2021/03/31 00:25:53;;;;;;;41.65;26.27;;;282.00;1971.20;;;;;;5016805;28;20025;-84
2021/03/31 00:28:21;;;;;;;43.83;27.70;;;282.00;1971.20;;;;;;5016812;28;20033;-84
2021/03/31 00:30:47;;;;;;;53.90;28.92;;;282.10;1971.20;;;;;;5034386;28;20025;-84
2021/03/31 00:33:14;;;;;;;43.13;26.00;;;282.00;1971.20;;;;;;5016812;28;20108;-84
2021/03/31 00:35:40;;;;;;;39.35;25.35;;;282.00;1945.60;;;;;;5034568;28;20403;-85
2021/03/31 00:38:06;;;;;;;43.85;23.55;;;281.90;1945.60;;;;;;5000334;28;20133;-85
2021/03/31 00:40:38;;;;;;;35.65;22.20;;;281.90;1971.20;;;;;;5000581;28;20040;-85
2021/03/31 00:43:04;;;;;;;37.13;23.77;;;281.90;1971.20;;;;;;5017226;28;20385;-85
2021/03/31 00:45:30;;;;;;;36.95;23.20;;;281.80;1996.80;;;;;;5016806;28;20136;-86
2021/03/31 00:47:56;;;;;;;35.67;21.38;;;281.80;1971.20;;;;;;5034834;28;20060;-86
2021/03/31 00:50:22;;;;;;;34.47;19.77;;;281.90;1971.20;;;;;;5016930;28;20485;-86
2021/03/31 00:52:51;;;;;;;31.85;21.98;;;281.90;1971.20;;;;;;5016802;28;20120;-86
2021/03/31 00:55:24;;;;;;;32.25;19.38;;;281.70;1996.80;;;;;;5016864;28;20108;-86
2021/03/31 00:57:51;;;;;;;34.38;20.25;;;281.80;1996.80;;;;;;5016743;28;20018;-86
2021/03/31 01:00:18;;;;;;;30.38;19.58;;;281.90;1996.80;;;;;;5034369;28;20049;-86
2021/03/31 01:02:44;;;;;;;26.88;18.40;;;281.80;1996.80;;;;;;5016691;28;20485;-86
2021/03/31 01:05:16;;;;;;;29.08;19.45;;;281.90;1996.80;;;;;;5016695;28;20025;-86
2021/03/31 01:07:42;;;;;;;32.22;20.92;;;281.90;1996.80;;;;;;5016524;28;20021;-85
2021/03/31 01:10:10;;;;;;;29.00;19.98;;;282.00;1996.80;;;;;;5016134;28;20123;-85
2021/03/31 01:12:57;;;;;;;29.63;19.92;;;282.00;1996.80;;;;;;5016328;28;20040;-85
2021/03/31 01:15:31;;;;;;;30.27;20.52;;;282.00;2022.40;;;;;;5016451;28;20021;-85
2021/03/31 01:18:46;;;;;;;27.98;20.00;;;282.10;2048.00;;;;;;5016312;28;20025;-85
2021/03/31 01:21:48;;;;;;;32.67;21.08;;;282.20;2022.40;;;;;;4956857;28;20023;-85
2021/03/31 01:24:26;;;;;;;34.90;21.45;;;282.20;2022.40;;;;;;4973067;28;20038;-85
2021/03/31 01:26:58;;;;;;;33.15;19.90;;;282.20;2048.00;;;;;;5021100;28;20046;-84
2021/03/31 01:29:41;;;;;;;33.10;20.27;;;282.30;2022.40;;;;;;5033211;28;20053;-85
2021/03/31 01:32:35;;;;;;;35.97;21.50;;;282.30;2022.40;;;;;;5015234;28;20061;-85
2021/03/31 01:35:05;;;;;;;45.97;26.33;;;282.30;2022.40;;;;;;5014755;28;20397;-85
2021/03/31 01:37:31;;;;;;;46.17;26.80;;;282.40;1996.80;;;;;;5032685;28;20022;-84
2021/03/31 01:39:58;;;;;;;46.50;27.30;;;282.40;1996.80;;;;;;5032885;28;20072;-85
2021/03/31 01:42:28;;;;;;;43.55;28.08;;;282.50;1996.80;;;;;;5015959;28;20096;-85
2021/03/31 01:45:00;;;;;;;48.83;29.47;;;282.50;1996.80;;;;;;5033869;28;20032;-85
2021/03/31 01:47:29;;;;;;;47.67;29.00;;;282.50;1996.80;;;;;;5016010;28;20255;-85
2021/03/31 01:49:55;;;;;;;52.47;30.52;;;307.20;1996.80;;;;;;5034156;28;20083;-85
2021/03/31 01:52:22;;;;;;;52.97;31.75;;;307.20;1996.80;;;;;;5044361;28;20484;-85
2021/03/31 01:54:49;;;;;;;61.33;36.13;;;307.20;1996.80;;;;;;5035371;28;20025;-85
2021/03/31 01:57:15;;;;;;;57.67;36.42;;;282.50;1996.80;;;;;;5035847;28;20117;-85
2021/03/31 01:59:43;;;;;;;71.30;41.40;;;307.20;1996.80;;;;;;5036032;28;20024;-85
2021/03/31 02:02:12;;;;;;;74.75;43.85;;;307.20;1996.80;;;;;;5053433;28;20496;-85
2021/03/31 02:04:40;;;;;;;74.03;42.97;;;307.20;1996.80;;;;;;5035138;28;20060;-85
2021/03/31 02:07:09;;;;;;;73.53;44.25;;;307.20;1996.80;;;;;;5035704;28;20078;-85
2021/03/31 02:09:39;;;;;;;75.82;43.58;;;307.20;1996.80;;;;;;5053573;28;20039;-85
2021/03/31 02:12:07;;;;;;;76.00;43.47;;;307.20;1996.80;;;;;;5035194;28;20114;-85
2021/03/31 02:14:36;;;;;;;84.07;46.10;;;282.50;1971.20;;;;;;5035682;28;20037;-85
2021/03/31 02:17:03;;;;;;;70.23;43.23;;;282.50;1971.20;;;;;;5035170;28;20037;-85
2021/03/31 02:19:30;;;;;;;83.88;45.47;;;282.50;1971.20;;;;;;5035359;28;20254;-84
2021/03/31 02:21:56;;;;;;;75.07;43.60;;;307.20;1996.80;;;;;;5035668;28;20021;-85
2021/03/31 02:24:22;;;;;;;80.97;48.25;;;307.20;1971.20;;;;;;5056667;28;20029;-84
2021/03/31 02:26:49;;;;;;;82.47;47.35;;;307.20;1971.20;;;;;;5038685;28;20027;-83
2021/03/31 02:29:15;;;;;;;67.47;40.45;;;307.20;1971.20;;;;;;5039059;28;20055;-84
2021/03/31 02:31:43;;;;;;;64.63;36.17;;;307.20;1971.20;;;;;;5038010;28;20404;-83
2021/03/31 02:34:10;;;;;;;58.00;36.15;;;307.20;1971.20;;;;;;5056091;28;20070;-84
2021/03/31 02:36:38;;;;;;;62.72;37.53;;;307.20;1996.80;;;;;;5037882;28;20028;-83
2021/03/31 02:39:04;;;;;;;54.67;34.33;;;282.50;1971.20;;;;;;5037140;28;20112;-84
2021/03/31 02:41:34;;;;;;;58.83;34.05;;;282.50;1971.20;;;;;;5055053;28;20017;-84
2021/03/31 02:44:00;;;;;;;55.07;34.20;;;282.50;1945.60;;;;;;5055444;28;20040;-86
2021/03/31 02:46:29;;;;;;;48.83;32.90;;;282.50;1971.20;;;;;;5037944;28;20059;-86
2021/03/31 02:48:55;;;;;;;52.17;32.75;;;282.50;1971.20;;;;;;5037845;28;20029;-86
2021/03/31 02:51:21;;;;;;;55.95;32.45;;;282.50;1971.20;;;;;;5056058;28;20074;-86
2021/03/31 02:53:49;;;;;;;49.38;32.28;;;282.50;1971.20;;;;;;5038259;28;20032;-86
2021/03/31 02:56:17;;;;;;;53.28;31.63;;;282.50;1971.20;;;;;;5038736;28;20112;-86
2021/03/31 02:58:43;;;;;;;54.97;30.52;;;307.20;1996.80;;;;;;5038517;28;20021;-85
2021/03/31 03:01:10;;;;;;;51.20;32.45;;;307.20;1996.80;;;;;;5038562;28;20017;-85
2021/03/31 03:03:36;;;;;;;50.45;31.65;;;307.20;2022.40;;;;;;5038502;28;20056;-85
2021/03/31 03:06:03;;;;;;;55.03;31.35;;;307.20;2022.40;;;;;;5038478;28;20025;-85
2021/03/31 03:08:30;;;;;;;55.17;32.00;;;307.20;2022.40;;;;;;5038207;28;20114;-84
2021/03/31 03:10:58;;;;;;;49.70;32.05;;;307.20;2022.40;;;;;;5038265;28;20021;-85
2021/03/31 03:13:25;;;;;;;50.40;31.33;;;307.20;1996.80;;;;;;5038217;28;20029;-84
2021/03/31 03:15:51;;;;;;;51.28;30.42;;;307.20;2022.40;;;;;;5022003;28;20040;-85
2021/03/31 03:18:17;;;;;;;54.70;31.17;;;307.20;1996.80;;;;;;5037776;28;20029;-86
2021/03/31 03:20:43;;;;;;;50.72;33.17;;;307.20;1996.80;;;;;;5038133;28;20017;-86
2021/03/31 03:23:09;;;;;;;52.30;30.52;;;307.20;1996.80;;;;;;5038339;28;20082;-87
2021/03/31 03:25:36;;;;;;;47.08;29.25;;;307.20;1996.80;;;;;;5038363;28;20496;-87
2021/03/31 03:28:04;;;;;;;52.30;30.05;;;307.30;1996.80;;;;;;5038214;28;20029;-86
2021/03/31 03:30:30;;;;;;;45.38;28.65;;;307.20;1996.80;;;;;;5038202;28;20066;-86
2021/03/31 03:32:58;;;;;;;49.47;28.00;;;307.30;1996.80;;;;;;5055478;28;20025;-86
2021/03/31 03:35:26;;;;;;;40.22;26.25;;;307.30;1996.80;;;;;;5055794;28;20473;-86
2021/03/31 03:37:53;;;;;;;43.35;28.42;;;307.30;1996.80;;;;;;5055658;28;20024;-85
2021/03/31 03:40:25;;;;;;;43.60;27.10;;;307.30;1996.80;;;;;;5037689;28;20021;-86
2021/03/31 03:42:51;;;;;;;45.83;28.58;;;307.30;1996.80;;;;;;5055553;28;20500;-86
2021/03/31 03:45:18;;;;;;;45.15;28.55;;;307.30;1945.60;;;;;;5037767;28;20049;-87
2021/03/31 03:47:44;;;;;;;42.10;27.42;;;307.30;1971.20;;;;;;5037409;28;20029;-86
2021/03/31 03:50:12;;;;;;;46.58;27.33;;;307.30;1971.20;;;;;;5055601;28;20021;-86
2021/03/31 03:52:38;;;;;;;46.63;27.42;;;307.30;1971.20;;;;;;5037677;28;20021;-86
2021/03/31 03:55:06;;;;;;;49.78;29.15;;;307.30;1971.20;;;;;;5055337;28;20025;-87
2021/03/31 03:57:32;;;;;;;69.20;36.53;;;307.30;1945.60;;;;;;5037518;28;20025;-86
2021/03/31 03:59:59;;;;;;;56.20;34.17;;;307.40;1920.00;;;;;;5037594;28;20028;-86
2021/03/31 04:02:24;;;;;;;57.03;33.72;;;307.40;1945.60;;;;;;5036906;28;20029;-85
2021/03/31 04:04:51;;;;;;;53.20;32.03;;;307.40;1945.60;;;;;;5037546;28;20036;-86
2021/03/31 04:07:17;;;;;;;58.92;32.08;;;307.40;1920.00;;;;;;5037431;28;20438;-86
2021/03/31 04:09:47;;;;;;;52.50;31.95;;;307.50;1920.00;;;;;;5054690;28;20021;-86
2021/03/31 04:12:15;;;;;;;;;;;307.40;1945.60;;;;;;5036691;28;20052;-86
2021/03/31 04:14:41;;;;;;;48.00;29.48;;;307.40;1920.00;;;;;;5036973;28;20394;-87
2021/03/31 04:17:10;;;;;;;47.78;29.98;;;307.40;1920.00;;;;;;5054786;28;20103;-86
2021/03/31 04:19:38;;;;;;;44.97;29.15;;;307.40;1920.00;;;;;;5031984;28;20032;-86
2021/03/31 04:22:10;;;;;;;50.25;28.65;;;307.40;1920.00;;;;;;5034807;28;20021;-86
2021/03/31 04:24:36;;;;;;;46.70;28.90;;;307.40;1920.00;;;;;;5016993;28;20492;-85
2021/03/31 04:27:03;;;;;;;44.38;26.98;;;307.50;1945.60;;;;;;5017030;28;20120;-85
2021/03/31 04:29:30;;;;;;;46.85;28.98;;;307.50;1920.00;;;;;;5016738;28;20116;-84
2021/03/31 04:31:56;;;;;;;48.05;27.27;;;307.50;1920.00;;;;;;5017133;28;20033;-84
2021/03/31 04:34:22;;;;;;;48.30;27.05;;;307.50;1920.00;;;;;;5018336;28;20033;-86
2021/03/31 04:36:48;;;;;;;44.75;25.48;;;307.50;1920.00;;;;;;5016339;28;20417;-84
2021/03/31 04:39:17;;;;;;;45.95;25.77;;;307.50;1920.00;;;;;;5016309;28;20037;-84
2021/03/31 04:41:43;;;;;;;41.95;26.80;;;307.50;1920.00;;;;;;5016618;28;20025;-84
2021/03/31 04:44:09;;;;;;;52.95;26.95;;;307.60;1920.00;;;;;;5000443;28;20375;-85
2021/03/31 04:46:34;;;;;;;38.92;23.35;;;307.60;1920.00;;;;;;5016017;28;20045;-80
2021/03/31 04:49:00;;;;;;;46.60;24.38;;;307.60;1920.00;;;;;;5016723;28;20057;-85
2021/03/31 04:51:26;;;;;;;39.33;24.38;;;307.60;1894.40;;;;;;5016652;28;20042;-85
2021/03/31 04:53:52;;;;;;;41.90;25.27;;;307.60;1920.00;;;;;;5034109;28;20032;-85
2021/03/31 04:56:17;;;;;;;41.08;25.33;;;307.60;1920.00;;;;;;5016440;28;20033;-85
2021/03/31 04:58:44;;;;;;;40.45;25.25;;;307.60;1920.00;;;;;;5033735;28;20024;-83
2021/03/31 05:01:10;;;;;;;40.67;24.55;;;307.70;1920.00;;;;;;5016005;28;20056;-82
2021/03/31 05:03:35;;;;;;;39.17;23.48;;;307.70;1920.00;;;;;;5010943;28;20100;-85
2021/03/31 05:06:01;;;;;;;41.38;23.92;;;307.70;1894.40;;;;;;5012727;28;20059;-83
2021/03/31 05:08:27;;;;;;;37.72;23.88;;;307.80;1894.40;;;;;;5013490;28;20386;-83
2021/03/31 05:10:52;;;;;;;51.70;32.08;;;307.80;1894.40;;;;;;5012194;28;20081;-82
2021/03/31 05:13:18;;;;;;;53.10;34.70;;;307.80;1894.40;;;;;;5013718;28;20112;-82
2021/03/31 05:15:44;;;;;;;49.83;32.38;;;307.80;1894.40;;;;;;5012861;28;20744;-82
2021/03/31 05:18:10;;;;;;;47.40;28.52;;;307.80;1894.40;;;;;;5012390;28;20053;-81
2021/03/31 05:20:36;;;;;;;43.70;26.58;;;307.90;1894.40;;;;;;5026890;28;20040;-82
2021/03/31 05:23:02;;;;;;;42.00;25.05;;;307.90;1868.80;;;;;;5014834;28;20029;-81
2021/03/31 05:25:28;;;;;;;38.58;25.73;;;307.90;1868.80;;;;;;5032993;28;20030;-81
2021/03/31 05:27:54;;;;;;;43.42;25.83;;;308.00;1894.40;;;;;;5014694;28;20037;-81
2021/03/31 05:30:21;;;;;;;46.72;26.77;;;308.00;1868.80;;;;;;5007635;28;20040;-81
2021/03/31 05:32:47;;;;;;;41.80;26.70;;;308.00;1894.40;;;;;;5000698;28;20065;-82
2021/03/31 05:35:13;;;;;;;41.05;28.75;;;308.10;1894.40;;;;;;4996452;28;20026;-82
2021/03/31 05:37:39;;;;;;;49.53;26.80;;;308.10;1868.80;;;;;;4995367;28;20034;-82
2021/03/31 05:40:06;;;;;;;47.17;26.65;;;332.80;1894.40;;;;;;4995471;28;20494;-82
2021/03/31 05:42:33;;;;;;;49.08;25.30;;;332.80;1894.40;;;;;;4995919;28;20124;-82
2021/03/31 05:45:04;;;;;;;41.95;24.63;;;332.90;1894.40;;;;;;5013484;28;20034;-83
2021/03/31 05:47:35;;;;;;;;;;;333.00;1894.40;;;;;;4996349;28;20026;-82
2021/03/31 05:50:03;;;;;;;30.15;21.77;;;333.00;1894.40;;;;;;4995908;28;19905;-83
2021/03/31 05:52:29;;;;;;;36.15;23.25;;;333.00;1894.40;;;;;;4995914;28;20034;-83
2021/03/31 05:54:55;;;;;;;48.10;26.48;;;333.10;1894.40;;;;;;4995809;28;20033;-82
2021/03/31 05:57:23;;;;;;;76.72;35.40;;;333.20;1894.40;;;;;;4996693;28;20493;-82
2021/03/31 05:59:51;;;;;;;66.78;33.22;;;333.20;1868.80;;;;;;5008075;28;20032;-83
2021/03/31 06:02:17;;;;;;;76.18;33.63;;;333.30;1868.80;;;;;;5056390;28;20072;-82
2021/03/31 06:04:44;;;;;;;60.97;29.77;;;333.30;1843.20;;;;;;5029173;28;20056;-82
2021/03/31 06:07:11;;;;;;;78.97;39.05;;;333.40;1843.20;;;;;;5055339;28;20025;-82
2021/03/31 06:10:28;;;;;;;56.67;29.05;;;333.40;1843.20;;;;;;5037688;28;20025;-82
2021/03/31 06:13:04;;;;;;;48.20;25.88;;;333.50;1843.20;;;;;;5016540;28;20119;-82
2021/03/31 06:15:44;;;;;;;56.80;26.58;;;333.50;1817.60;;;;;;5056531;28;20013;-82
2021/03/31 06:18:09;;;;;;;41.83;25.27;;;333.60;1817.60;;;;;;5038194;28;20033;-82
2021/03/31 06:20:45;;;;;;;44.05;23.88;;;333.60;1792.00;;;;;;5038366;28;20028;-82
2021/03/31 06:26:31;;;;;;;57.95;26.05;;;358.40;1792.00;;;;;;5056314;28;20480;-79
2021/03/31 06:29:03;;;;;;;58.50;25.38;;;358.40;1766.40;;;;;;5056108;28;20028;-81
2021/03/31 06:31:31;;;;;;;48.63;23.85;;;358.50;1766.40;;;;;;5038323;28;20112;-81
2021/03/31 06:34:22;;;;;;;47.08;25.92;;;358.50;1740.80;;;;;;5055979;28;20075;-81
2021/03/31 06:36:51;;;;;;;28.67;17.63;;;358.60;1740.80;;;;;;5056114;28;20523;-81
2021/03/31 06:39:32;;;;;;;26.73;17.40;;;358.70;1715.20;;;;;;5037900;28;20025;-81
2021/03/31 06:45:00;;;;;;;;;;;;;;;;;;;;;
2021/03/31 06:47:49;;;;;;;27.38;17.90;;;358.80;1715.20;;;;;;5055842;28;20397;-80
2021/03/31 06:50:17;;;;;;;31.58;18.02;;;358.90;1689.60;;;;;;5037970;28;20028;-81
2021/03/31 06:52:58;;;;;;;25.30;14.50;;;358.90;1715.20;;;;;;5055597;28;20060;-81
2021/03/31 06:55:25;;;;;;;23.73;15.25;;;358.90;1664.00;;;;;;5037496;28;20033;-80
2021/03/31 06:57:53;;;;;;;22.98;14.57;;;358.90;1664.00;;;;;;5037771;28;20028;-81
2021/03/31 07:00:28;;;;;;;26.20;15.57;;;358.90;1638.40;;;;;;5055882;28;20028;-80
2021/03/31 07:02:57;;;;;;;29.42;16.35;;;358.90;1664.00;;;;;;5055514;28;20082;-81
2021/03/31 07:05:23;;;;;;;20.98;13.80;;;359.00;1664.00;;;;;;5055346;28;20079;-80
2021/03/31 07:08:00;;;;;;;21.95;13.13;;;359.00;1664.00;;;;;;5036893;28;20033;-81
2021/03/31 07:10:25;;;;;;;25.45;14.60;;;359.10;1664.00;;;;;;5055446;28;20120;-81
2021/03/31 07:12:52;;;;;;;23.35;15.93;;;359.20;1689.60;;;;;;5054001;28;20513;-80
2021/03/31 07:15:21;;;;;;;20.25;13.45;;;359.20;1689.60;;;;;;5018436;28;20351;-81
2021/03/31 07:17:52;;;;;;;21.08;12.90;;;359.30;1689.60;;;;;;5048560;28;20048;-80
2021/03/31 07:20:18;;;;;;;19.08;12.07;;;359.30;1664.00;;;;;;5036892;28;20128;-81
2021/03/31 07:22:44;;;;;;;18.05;11.43;;;359.30;1638.40;;;;;;5037271;28;20684;-81
2021/03/31 07:25:13;;;;;;;23.83;12.90;;;384.00;1638.40;;;;;;5037090;28;20029;-80
2021/03/31 07:27:39;;;;;;;18.88;13.32;;;384.00;1638.40;;;;;;5055141;28;20028;-81
2021/03/31 07:30:11;;;;;;;20.40;11.38;;;384.10;1664.00;;;;;;5055114;28;20025;-81
2021/03/31 07:32:51;;;;;;;12.23;9.85;;;384.20;1664.00;;;;;;5037080;28;20029;-81
2021/03/31 07:35:18;;;;;;;13.48;11.05;;;384.30;1638.40;;;;;;5037122;28;20022;-81
2021/03/31 07:37:45;;;;;;;14.05;9.55;;;384.40;1638.40;;;;;;5037079;28;20534;-80
2021/03/31 07:40:12;;;;;;;16.52;10.77;;;384.40;1612.80;;;;;;5027860;28;20390;-80
2021/03/31 07:42:59;;;;;;;17.20;10.27;;;384.50;1638.40;;;;;;4996607;28;20434;-82
2021/03/31 07:45:33;;;;;;;15.60;10.23;;;384.60;1612.80;;;;;;5014957;28;20054;-81
2021/03/31 07:47:59;;;;;;;14.18;10.15;;;384.70;1587.20;;;;;;5013812;28;20029;-81
2021/03/31 07:50:26;;;;;;;11.35;8.90;;;384.80;1612.80;;;;;;5013477;28;20022;-81
2021/03/31 07:53:03;;;;;;;15.77;9.35;;;384.90;1612.80;;;;;;5013566;28;20475;-81
2021/03/31 07:55:34;;;;;;;16.25;10.02;;;409.60;1612.80;;;;;;5014929;28;20390;-81
2021/03/31 07:58:12;;;;;;;18.40;10.25;;;409.70;1612.80;;;;;;5014828;28;20478;-81
2021/03/31 08:00:48;;;;;;;18.77;10.75;;;409.70;1612.80;;;;;;5013493;28;20029;-81
2021/03/31 08:03:27;;;;;;;17.02;9.95;;;409.80;1612.80;;;;;;5037393;28;20047;-81
2021/03/31 08:06:28;;;;;;;16.60;11.32;;;409.80;1561.60;;;;;;5054383;28;20032;-80
2021/03/31 08:08:57;;;;;;;15.68;9.43;;;409.90;1561.60;;;;;;5036474;28;20029;-80
2021/03/31 08:11:41;;;;;;;9.82;8.15;;;409.90;1561.60;;;;;;5036348;28;20041;-80
2021/03/31 08:14:11;;;;;;;14.18;9.80;;;409.90;1561.60;;;;;;5054326;28;20037;-80
2021/03/31 08:16:47;;;;;;;16.92;10.98;;;410.10;1587.20;;;;;;5054059;28;20048;-84
2021/03/31 08:19:20;;;;;;;17.70;9.60;;;410.20;1561.60;;;;;;5054087;28;20395;-83
2021/03/31 08:21:49;;;;;;;13.25;8.73;;;410.20;1561.60;;;;;;5035729;28;20477;-84
2021/03/31 08:24:16;;;;;;;14.30;8.82;;;410.20;1510.40;;;;;;5035317;28;20488;-85
2021/03/31 08:26:47;;;;;;;14.27;8.73;;;410.30;1561.60;;;;;;5053774;28;20469;-85
2021/03/31 08:29:19;;;;;;;11.13;8.57;;;410.30;1536.00;;;;;;5036547;28;20037;-84
2021/03/31 08:32:06;;;;;;;14.77;8.02;;;410.40;1484.80;;;;;;5054508;28;20064;-84
2021/03/31 08:34:33;;;;;;;16.58;9.20;;;410.40;1484.80;;;;;;5036744;28;20059;-85
2021/03/31 08:37:01;;;;;;;24.40;8.93;;;410.40;1484.80;;;;;;5036858;28;20020;-86
2021/03/31 08:39:27;;;;;;;15.10;8.55;;;410.50;1433.60;;;;;;5036994;28;20025;-86
2021/03/31 08:41:56;;;;;;;10.95;7.60;;;410.50;1433.60;;;;;;5037120;28;20036;-88
2021/03/31 08:44:31;;;;;;;16.30;7.80;;;435.20;1459.20;;;;;;5053801;28;20427;-86
2021/03/31 08:47:08;;;;;;;17.00;7.72;;;435.30;1433.60;;;;;;5035164;28;20063;-86
2021/03/31 08:49:34;;;;;;;26.58;10.43;;;435.30;1433.60;;;;;;5053192;28;20037;-86
2021/03/31 08:52:02;;;;;;;11.70;8.77;;;435.30;1459.20;;;;;;5035089;28;20025;-86
2021/03/31 08:54:37;;;;;;;9.82;7.82;;;435.40;1459.20;;;;;;5053957;28;20029;-86
2021/03/31 08:57:05;;;;;;;11.82;7.43;;;435.40;1433.60;;;;;;5036418;28;20025;-86
2021/03/31 08:59:36;;;;;;;10.43;8.40;;;435.40;1459.20;;;;;;5036264;28;20029;-86
2021/03/31 09:02:03;;;;;;;13.45;8.15;;;435.40;1433.60;;;;;;5036425;28;20048;-86
2021/03/31 09:04:28;;;;;;;18.63;8.23;;;435.40;1433.60;;;;;;5036382;28;20495;-86
2021/03/31 09:06:56;;;;;;;15.27;8.75;;;435.50;1408.00;;;;;;5036183;28;20123;-85
2021/03/31 09:09:22;;;;;;;12.40;8.77;;;435.50;1408.00;;;;;;5035945;28;20024;-85
2021/03/31 09:11:56;;;;;;;11.95;8.30;;;435.70;1459.20;;;;;;5036224;28;20028;-86
2021/03/31 09:14:25;;;;;;;14.93;8.27;;;435.70;1408.00;;;;;;5035516;28;20025;-86
2021/03/31 09:16:58;;;;;;;11.65;8.02;;;435.80;1433.60;;;;;;5051298;28;20009;-86
2021/03/31 09:19:26;;;;;;;17.10;9.65;;;435.80;1408.00;;;;;;5012897;28;20026;-86
2021/03/31 09:21:52;;;;;;;10.25;8.30;;;435.90;1408.00;;;;;;5011747;28;20029;-86
2021/03/31 09:24:23;;;;;;;12.15;8.13;;;435.90;1382.40;;;;;;5016610;28;20030;-86
2021/03/31 09:26:59;;;;;;;;;;;436.00;1408.00;;;;;;5016239;28;20044;-86
2021/03/31 09:29:25;;;;;;;15.90;8.75;;;436.00;1408.00;;;;;;5015771;28;19950;-86
2021/03/31 09:31:52;;;;;;;11.57;7.03;;;436.10;1382.40;;;;;;5017670;28;20116;-86
2021/03/31 09:34:18;;;;;;;16.08;7.80;;;460.80;1433.60;;;;;;5016522;28;20033;-87
2021/03/31 09:37:19;;;;;;;12.63;7.28;;;460.80;1433.60;;;;;;5016410;28;20029;-87
2021/03/31 09:39:46;;;;;;;;;;;460.80;1356.80;;;;;;4965873;28;20037;-87
2021/03/31 09:42:25;;;;;;;10.82;8.20;;;460.80;1433.60;;;;;;5016930;28;19992;-86
2021/03/31 09:44:54;;;;;;;11.30;6.80;;;460.90;1408.00;;;;;;5016838;28;20026;-87
2021/03/31 09:47:21;;;;;;;11.35;7.32;;;460.90;1408.00;;;;;;5003664;28;20474;-86
2021/03/31 09:49:52;;;;;;;11.65;6.68;;;460.90;1356.80;;;;;;5020403;28;20032;-87
2021/03/31 09:52:29;;;;;;;9.43;6.30;;;460.80;1356.80;;;;;;5020150;28;20481;-87
2021/03/31 09:55:01;;;;;;;11.15;7.15;;;460.80;1382.40;;;;;;5020204;28;20021;-87
2021/03/31 09:57:29;;;;;;;12.18;6.20;;;460.90;1356.80;;;;;;5020166;28;20477;-87
2021/03/31 09:59:55;;;;;;;7.47;5.90;;;461.00;1408.00;;;;;;5020031;28;20033;-86
2021/03/31 10:02:22;;;;;;;10.02;6.40;;;461.10;1382.40;;;;;;5044307;28;20021;-87
2021/03/31 10:04:49;;;;;;;11.75;6.82;;;461.20;1382.40;;;;;;5040104;28;20155;-87
2021/03/31 10:07:16;;;;;;;11.23;6.43;;;461.20;1382.40;;;;;;5039571;28;20032;-86
2021/03/31 10:09:45;;;;;;;11.23;6.57;;;461.20;1382.40;;;;;;5039052;28;20261;-86
2021/03/31 10:12:18;;;;;;;15.85;7.53;;;461.20;1382.40;;;;;;5039690;28;20817;-85
2021/03/31 10:14:49;;;;;;;9.20;6.35;;;461.30;1382.40;;;;;;5023728;28;20124;-84
2021/03/31 10:17:16;;;;;;;9.93;6.55;;;461.40;1408.00;;;;;;5039169;28;20017;-87
2021/03/31 10:19:42;;;;;;;17.27;6.47;;;461.50;1382.40;;;;;;5057210;28;20055;-87
2021/03/31 10:22:08;;;;;;;13.60;7.22;;;461.60;1408.00;;;;;;5057100;28;20021;-87
2021/03/31 10:24:37;;;;;;;9.73;6.43;;;461.50;1356.80;;;;;;5023163;28;20590;-87
2021/03/31 10:27:03;;;;;;;10.20;5.88;;;461.60;1433.60;;;;;;5039307;28;20501;-87
2021/03/31 10:29:29;;;;;;;12.05;6.22;;;461.60;1408.00;;;;;;5039012;28;20031;-87
2021/03/31 10:31:58;;;;;;;6.93;5.85;;;461.70;1382.40;;;;;;5038245;28;20119;-86
2021/03/31 10:34:24;;;;;;;9.90;5.90;;;461.70;1382.40;;;;;;5038687;28;20037;-87
2021/03/31 10:47:53;;;;;;;17.98;7.15;;;461.70;1356.80;;;;;;5056981;28;20047;-86
2021/03/31 10:50:15;;;;;;;9.15;6.30;;;461.70;1408.00;;;;;;5056382;28;20086;-86
2021/03/31 10:52:52;;;;;;;8.15;5.97;;;486.50;1382.40;;;;;;5038774;28;20052;-87
2021/03/31 10:55:17;;;;;;;7.90;5.28;;;486.70;1382.40;;;;;;5039015;28;20017;-88
2021/03/31 10:57:43;;;;;;;9.50;6.40;;;486.60;1382.40;;;;;;5038717;28;20125;-87
2021/03/31 11:00:09;;;;;;;7.43;6.22;;;486.70;1408.00;;;;;;5038893;28;20021;-87
2021/03/31 11:02:35;;;;;;;12.07;5.85;;;486.80;1408.00;;;;;;5055441;28;20115;-87
2021/03/31 11:05:01;;;;;;;11.65;6.43;;;486.90;1356.80;;;;;;5051297;28;20453;-87
2021/03/31 11:07:27;;;;;;;11.43;6.60;;;487.00;1331.20;;;;;;5056524;28;20021;-87
2021/03/31 11:09:52;;;;;;;8.85;5.88;;;487.00;1382.40;;;;;;5055990;28;20045;-87
2021/03/31 11:12:18;;;;;;;10.98;5.30;;;487.00;1356.80;;;;;;5037013;28;20021;-87
2021/03/31 11:14:44;;;;;;;7.80;5.40;;;487.10;1331.20;;;;;;5037170;28;20546;-87
2021/03/31 11:17:30;;;;;;;7.43;4.60;;;487.10;1356.80;;;;;;5038128;28;20025;-87
2021/03/31 11:27:55;;;;;;;8.15;6.03;;;487.20;1305.60;;;;;;5016475;28;20041;-87
2021/03/31 11:30:22;;;;;;;10.63;5.05;;;487.30;1331.20;;;;;;4998793;28;20026;-82
2021/03/31 11:32:47;;;;;;;11.70;5.63;;;487.30;1331.20;;;;;;4997654;28;20033;-84
2021/03/31 11:35:13;;;;;;;13.13;5.22;;;487.20;1331.20;;;;;;5015506;28;20026;-84
2021/03/31 11:37:39;;;;;;;9.20;5.68;;;487.20;1356.80;;;;;;5015478;28;20033;-84
2021/03/31 11:40:06;;;;;;;10.75;5.80;;;487.30;1382.40;;;;;;5015403;28;20029;-83
2021/03/31 11:42:32;;;;;;;8.20;4.88;;;487.30;1305.60;;;;;;4997633;28;20533;-84
2021/03/31 11:44:58;;;;;;;6.30;4.85;;;512.00;1356.80;;;;;;4997207;28;20026;-84
2021/03/31 11:47:23;;;;;;;6.97;4.43;;;512.10;1382.40;;;;;;4996975;28;20088;-84
2021/03/31 11:49:49;;;;;;;5.60;4.30;;;512.20;1356.80;;;;;;4998077;28;20866;-84
2021/03/31 11:52:15;;;;;;;7.78;5.05;;;512.30;1356.80;;;;;;5015106;28;20512;-84
2021/03/31 11:54:41;;;;;;;7.90;4.20;;;512.30;1305.60;;;;;;4997517;28;20037;-83
2021/03/31 11:57:07;;;;;;;9.20;3.53;;;512.40;1305.60;;;;;;4997124;28;20026;-83
2021/03/31 11:59:32;;;;;;;9.68;4.78;;;512.50;1382.40;;;;;;5013991;28;20088;-83
2021/03/31 12:01:58;;;;;;;3.88;3.15;;;512.60;1356.80;;;;;;4997343;28;20046;-83
2021/03/31 12:04:24;;;;;;;6.20;4.03;;;512.60;1356.80;;;;;;4997169;28;20030;-83
2021/03/31 12:06:50;;;;;;;13.13;6.40;;;512.60;1356.80;;;;;;5021816;28;20512;-82
2021/03/31 12:09:16;;;;;;;6.15;4.20;;;512.60;1305.60;;;;;;5016770;28;20033;-83
2021/03/31 12:11:42;;;;;;;5.45;3.97;;;512.60;1331.20;;;;;;5016275;28;20041;-83
2021/03/31 12:14:07;;;;;;;4.40;3.90;;;512.60;1254.40;;;;;;4986948;28;20040;-83
2021/03/31 12:16:33;;;;;;;6.43;4.60;;;512.50;1305.60;;;;;;5016118;28;20037;-83
2021/03/31 12:18:59;;;;;;;6.57;4.47;;;512.60;1331.20;;;;;;4996311;28;20081;-83
2021/03/31 12:21:25;;;;;;;8.23;5.30;;;512.80;1331.20;;;;;;4996758;28;20038;-83
2021/03/31 12:23:50;;;;;;;6.55;4.15;;;512.90;1331.20;;;;;;4996982;28;20129;-83
2021/03/31 12:26:16;;;;;;;7.68;4.82;;;537.60;1331.20;;;;;;5014391;28;20510;-83
2021/03/31 12:28:49;;;;;;;10.98;4.40;;;537.70;1305.60;;;;;;5014385;28;20030;-84
2021/03/31 12:31:15;;;;;;;7.15;4.82;;;537.60;1331.20;;;;;;4999456;28;20032;-83
2021/03/31 12:33:41;;;;;;;7.32;6.45;;;537.70;1356.80;;;;;;5015415;28;20029;-82
2021/03/31 12:36:07;;;;;;;5.05;4.65;;;537.70;1331.20;;;;;;5012102;28;20413;-83
2021/03/31 12:38:33;;;;;;;7.93;5.05;;;537.70;1305.60;;;;;;5012933;28;20076;-82
2021/03/31 12:40:58;;;;;;;7.32;4.85;;;537.70;1331.20;;;;;;5016137;28;20025;-84